createdAt,value
2019-01-23T00:01:51.280Z,78.30
2019-01-23T00:04:22.013Z,78.40
2019-01-23T00:06:52.537Z,78.70
2019-01-23T00:09:23.059Z,78.20
2019-01-23T00:11:54.090Z,78.20
2019-01-23T00:14:24.573Z,78.10
2019-01-23T00:16:55.094Z,78.40
2019-01-23T00:19:25.681Z,78.70
2019-01-23T00:21:56.320Z,78.70
2019-01-23T00:24:27.164Z,78.40
2019-01-23T00:26:57.891Z,78.50
2019-01-23T00:29:28.772Z,78.40
2019-01-23T00:31:59.723Z,78.30
2019-01-23T00:34:30.467Z,78.50
2019-01-23T00:37:02.230Z,78.50
2019-01-23T00:39:33.207Z,78.70
2019-01-23T00:42:03.961Z,78.90
2019-01-23T00:44:34.708Z,79.00
2019-01-23T00:47:05.841Z,78.70
2019-01-23T00:49:36.524Z,78.70
2019-01-23T00:52:07.310Z,78.70
2019-01-23T00:54:38.581Z,78.70
2019-01-23T00:57:09.550Z,78.70
2019-01-23T00:59:40.121Z,78.80
2019-01-23T01:02:11.072Z,79.10
2019-01-23T01:04:42.026Z,79.70
2019-01-23T01:07:13.754Z,79.40
2019-01-23T01:09:44.686Z,79.40
2019-01-23T01:12:15.942Z,79.30
2019-01-23T01:14:46.837Z,79.30
2019-01-23T01:17:17.708Z,79.40
2019-01-23T01:19:48.310Z,79.90
2019-01-23T01:22:19.048Z,80.00
2019-01-23T01:24:49.806Z,80.20
2019-01-23T01:27:20.463Z,80.00
2019-01-23T01:29:51.178Z,80.00
2019-01-23T01:32:21.652Z,79.70
2019-01-23T01:34:52.160Z,79.90
2019-01-23T01:37:22.741Z,79.90
2019-01-23T01:39:53.465Z,79.50
2019-01-23T01:42:24.050Z,80.00
2019-01-23T01:44:54.955Z,79.70
2019-01-23T01:47:25.718Z,79.40
2019-01-23T01:49:56.257Z,79.40
2019-01-23T01:52:26.709Z,79.60
2019-01-23T01:54:57.256Z,79.70
2019-01-23T01:57:27.784Z,79.70
2019-01-23T01:59:58.633Z,79.70
2019-01-23T02:02:29.169Z,79.10
2019-01-23T02:04:59.697Z,79.10
2019-01-23T02:07:30.222Z,79.10
2019-01-23T02:10:00.725Z,79.30
2019-01-23T02:12:31.192Z,79.30
2019-01-23T02:15:01.732Z,79.30
2019-01-23T02:17:32.664Z,79.40
2019-01-23T02:20:03.280Z,79.50
2019-01-23T02:22:33.736Z,79.60
2019-01-23T02:25:04.586Z,79.70
2019-01-23T02:27:35.194Z,79.90
2019-01-23T02:30:07.620Z,79.80
2019-01-23T02:32:38.339Z,79.70
2019-01-23T02:35:09.266Z,79.80
2019-01-23T02:37:40.002Z,79.80
2019-01-23T02:40:16.581Z,80.00
2019-01-23T02:42:47.031Z,80.10
2019-01-23T02:45:18.660Z,80.40
2019-01-23T02:47:49.120Z,80.50
2019-01-23T02:50:19.723Z,80.50
2019-01-23T02:52:50.294Z,80.80
2019-01-23T02:55:21.741Z,80.80
2019-01-23T02:57:52.290Z,80.70
2019-01-23T03:00:23.693Z,80.60
2019-01-23T03:02:54.194Z,80.50
2019-01-23T03:05:24.698Z,80.60
2019-01-23T03:07:55.375Z,80.60
2019-01-23T03:10:25.893Z,80.40
2019-01-23T03:12:56.352Z,80.50
2019-01-23T03:15:27.768Z,80.40
2019-01-23T03:17:58.349Z,80.50
2019-01-23T03:20:28.829Z,80.20
2019-01-23T03:22:59.285Z,79.90
2019-01-23T03:25:29.894Z,79.90
2019-01-23T03:28:00.437Z,79.50
2019-01-23T03:30:30.951Z,79.30
2019-01-23T03:33:01.482Z,79.30
2019-01-23T03:35:32.008Z,79.30
2019-01-23T03:38:02.565Z,79.50
2019-01-23T03:40:33.500Z,79.50
2019-01-23T03:43:04.018Z,79.50
2019-01-23T03:45:34.496Z,79.60
2019-01-23T03:48:05.078Z,79.30
2019-01-23T03:50:35.635Z,78.90
2019-01-23T03:53:06.100Z,78.80
2019-01-23T03:55:36.573Z,79.00
2019-01-23T03:58:07.058Z,78.90
2019-01-23T04:00:37.595Z,78.80
2019-01-23T04:03:08.162Z,78.80
2019-01-23T04:05:38.662Z,79.80
2019-01-23T04:08:09.242Z,78.70
2019-01-23T04:10:39.943Z,78.40
2019-01-23T04:13:10.461Z,78.50
2019-01-23T04:15:40.964Z,78.70
2019-01-23T04:18:11.475Z,78.90
2019-01-23T04:20:42.058Z,79.00
2019-01-23T04:23:12.581Z,79.20
2019-01-23T04:25:47.041Z,79.30
2019-01-23T04:28:17.520Z,79.40
2019-01-23T04:30:48.022Z,79.50
2019-01-23T04:33:18.492Z,79.50
2019-01-23T04:35:48.976Z,79.60
2019-01-23T04:38:19.465Z,79.60
2019-01-23T04:40:49.976Z,79.60
2019-01-23T04:43:20.465Z,79.70
2019-01-23T04:45:50.953Z,79.70
2019-01-23T04:48:21.421Z,80.00
2019-01-23T04:51:16.805Z,80.30
2019-01-23T04:53:48.883Z,80.30
2019-01-23T04:56:19.777Z,80.40
2019-01-23T04:58:50.335Z,80.50
2019-01-23T05:01:21.012Z,80.80
2019-01-23T05:03:51.794Z,80.90
2019-01-23T05:06:22.317Z,81.00
2019-01-23T05:08:52.878Z,81.10
2019-01-23T05:11:23.370Z,82.10
2019-01-23T05:13:53.847Z,81.40
2019-01-23T05:16:24.590Z,81.70
2019-01-23T05:18:55.398Z,81.90
2019-01-23T05:21:25.993Z,82.20
2019-01-23T05:23:56.459Z,82.30
2019-01-23T05:26:27.277Z,82.40
2019-01-23T05:28:57.761Z,81.90
2019-01-23T05:31:28.297Z,81.50
2019-01-23T05:33:59.176Z,81.30
2019-01-23T05:36:29.715Z,81.40
2019-01-23T05:39:00.315Z,81.10
2019-01-23T05:41:30.911Z,81.40
2019-01-23T05:44:01.402Z,81.10
2019-01-23T05:46:32.210Z,80.70
2019-01-23T05:49:06.446Z,80.50
2019-01-23T05:51:38.227Z,81.00
2019-01-23T05:54:08.715Z,81.30
2019-01-23T05:56:39.362Z,81.70
2019-01-23T05:59:09.901Z,81.70
2019-01-23T06:01:41.457Z,81.70
2019-01-23T06:04:12.061Z,82.10
2019-01-23T06:06:42.596Z,82.50
2019-01-23T06:09:13.063Z,82.50
2019-01-23T06:11:43.882Z,82.60
2019-01-23T06:14:14.729Z,82.60
2019-01-23T06:16:45.290Z,82.30
2019-01-23T06:19:15.782Z,82.20
2019-01-23T06:21:46.293Z,82.20
2019-01-23T06:24:16.851Z,81.90
2019-01-23T06:26:47.403Z,81.60
2019-01-23T06:29:18.195Z,81.40
2019-01-23T06:31:48.677Z,81.30
2019-01-23T06:34:19.216Z,81.50
2019-01-23T06:36:49.722Z,81.10
2019-01-23T06:39:20.239Z,80.90
2019-01-23T06:41:50.765Z,80.90
2019-01-23T06:44:21.277Z,80.80
2019-01-23T06:46:52.761Z,80.40
2019-01-23T06:49:23.250Z,80.00
2019-01-23T06:51:53.792Z,80.00
2019-01-23T06:54:24.401Z,80.10
2019-01-23T06:56:54.897Z,80.30
2019-01-23T06:59:25.406Z,80.40
2019-01-23T07:01:56.014Z,80.40
2019-01-23T07:04:26.876Z,80.70
2019-01-23T07:06:57.447Z,80.50
2019-01-23T07:09:28.038Z,80.30
2019-01-23T07:12:16.623Z,79.50
2019-01-23T07:14:45.954Z,79.80
2019-01-23T07:17:15.313Z,79.70
2019-01-23T07:19:44.656Z,79.60
2019-01-23T07:22:13.936Z,79.70
2019-01-23T07:24:43.303Z,79.40
2019-01-23T07:27:12.654Z,79.20
2019-01-23T07:29:41.962Z,78.70
2019-01-23T07:32:11.270Z,78.80
2019-01-23T07:34:40.605Z,78.50
2019-01-23T07:37:10.957Z,78.50
2019-01-23T07:39:40.270Z,78.80
2019-01-23T07:42:09.640Z,78.30
2019-01-23T07:44:38.901Z,78.50
2019-01-23T07:47:08.183Z,78.40
2019-01-23T07:49:37.508Z,78.20
2019-01-23T07:52:06.899Z,78.50
2019-01-23T07:54:36.867Z,78.30
2019-01-23T07:57:06.302Z,78.20
2019-01-23T07:59:35.643Z,78.10
2019-01-23T08:02:05.087Z,77.60
2019-01-23T08:04:34.459Z,77.40
2019-01-23T08:07:03.861Z,77.60
2019-01-23T08:09:33.182Z,77.80
2019-01-23T08:12:02.549Z,77.90
2019-01-23T08:14:31.916Z,78.10
2019-01-23T08:17:01.346Z,78.20
2019-01-23T08:19:31.109Z,78.70
2019-01-23T08:22:00.494Z,78.60
2019-01-23T08:24:29.870Z,79.40
2019-01-23T08:26:59.180Z,80.20
2019-01-23T08:29:28.492Z,80.10
2019-01-23T08:31:57.773Z,80.20
2019-01-23T08:34:27.133Z,80.40
2019-01-23T08:36:56.810Z,80.60
2019-01-23T08:39:26.122Z,80.60
2019-01-23T08:41:55.419Z,80.40
2019-01-23T08:44:24.792Z,80.40
2019-01-23T08:46:54.121Z,80.20
2019-01-23T08:49:24.466Z,80.20
2019-01-23T08:51:53.833Z,80.00
2019-01-23T08:54:23.172Z,79.70
2019-01-23T08:56:52.437Z,79.60
2019-01-23T08:59:22.149Z,79.60
2019-01-23T09:01:51.433Z,79.10
2019-01-23T09:04:20.759Z,79.10
2019-01-23T09:06:50.200Z,78.10
2019-01-23T09:09:19.562Z,77.60
2019-01-23T09:11:49.348Z,78.00
2019-01-23T09:14:19.015Z,77.50
2019-01-23T09:16:48.339Z,77.80
2019-01-23T09:19:17.966Z,77.80
2019-01-23T09:21:47.298Z,77.80
2019-01-23T09:24:18.023Z,77.20
2019-01-23T09:26:48.557Z,77.90
2019-01-23T09:29:19.209Z,77.10
2019-01-23T09:32:06.500Z,77.40
2019-01-23T09:35:27.867Z,76.90
2019-01-23T09:38:13.055Z,76.50
2019-01-23T09:41:24.382Z,75.60
2019-01-23T09:44:30.675Z,76.70
2019-01-23T09:47:26.306Z,75.80
2019-01-23T09:50:28.288Z,76.10
2019-01-23T09:53:16.215Z,75.70
2019-01-23T09:55:47.776Z,75.40
2019-01-23T09:58:18.729Z,75.00
2019-01-23T10:00:49.211Z,74.50
2019-01-23T10:03:23.144Z,73.10
2019-01-23T10:05:51.902Z,71.10
2019-01-23T10:08:22.398Z,70.40
2019-01-23T10:10:52.898Z,70.20
2019-01-23T10:13:23.398Z,69.90
2019-01-23T10:16:06.794Z,70.20
2019-01-23T10:18:37.683Z,70.70
2019-01-23T10:21:08.462Z,69.80
2019-01-23T10:23:38.963Z,70.40
2019-01-23T10:26:09.468Z,70.10
2019-01-23T10:28:39.950Z,69.80
2019-01-23T10:31:11.069Z,68.20
2019-01-23T10:33:41.549Z,66.20
2019-01-23T10:36:12.228Z,67.00
2019-01-23T10:38:42.746Z,65.70
2019-01-23T10:41:13.302Z,62.80
2019-01-23T10:43:44.141Z,62.70
2019-01-23T10:46:14.710Z,61.90
2019-01-23T10:48:45.142Z,61.70
2019-01-23T10:51:15.718Z,61.10
2019-01-23T10:53:46.228Z,60.90
2019-01-23T10:56:16.749Z,60.00
2019-01-23T10:58:47.249Z,60.30
2019-01-23T11:01:17.719Z,60.00
2019-01-23T11:03:48.296Z,60.00
2019-01-23T11:06:18.845Z,60.50
2019-01-23T11:08:48.302Z,59.90
2019-01-23T11:11:17.574Z,56.70
2019-01-23T11:13:47.175Z,56.80
2019-01-23T11:16:16.619Z,58.20
2019-01-23T11:18:45.984Z,58.80
2019-01-23T11:21:15.733Z,58.40
2019-01-23T11:23:45.082Z,58.50
2019-01-23T11:26:14.466Z,57.60
2019-01-23T11:28:44.111Z,58.40
2019-01-23T11:31:20.193Z,59.00
2019-01-23T11:33:44.472Z,59.30
2019-01-23T11:36:13.826Z,59.10
2019-01-23T11:38:43.106Z,60.10
2019-01-23T11:41:12.434Z,59.60
2019-01-23T11:43:41.746Z,59.30
2019-01-23T11:46:11.090Z,60.20
2019-01-23T11:48:40.359Z,59.40
2019-01-23T11:51:10.686Z,60.20
2019-01-23T11:53:39.958Z,59.30
2019-01-23T11:56:09.205Z,59.90
2019-01-23T11:58:38.496Z,60.10
2019-01-23T12:01:08.478Z,60.40
2019-01-23T12:03:40.969Z,60.30
2019-01-23T12:06:10.248Z,59.90
2019-01-23T12:08:40.572Z,60.20
2019-01-23T12:11:09.863Z,60.20
2019-01-23T12:13:39.151Z,59.50
2019-01-23T12:16:08.426Z,59.80
2019-01-23T12:18:37.689Z,59.40
2019-01-23T12:21:06.954Z,59.90
2019-01-23T12:23:36.270Z,59.00
2019-01-23T12:26:05.554Z,57.60
2019-01-23T12:28:34.807Z,57.80
2019-01-23T12:31:04.054Z,57.70
2019-01-23T12:33:33.307Z,58.10
2019-01-23T12:36:02.646Z,58.40
2019-01-23T12:38:31.922Z,57.50
2019-01-23T12:41:01.555Z,57.00
2019-01-23T12:43:30.886Z,58.30
2019-01-23T12:46:00.162Z,58.30
2019-01-23T12:48:29.673Z,57.90
2019-01-23T12:50:59.063Z,57.70
2019-01-23T12:53:28.386Z,58.20
2019-01-23T12:55:57.720Z,57.70
2019-01-23T12:58:27.386Z,57.50
2019-01-23T13:00:56.718Z,57.50
2019-01-23T13:03:25.988Z,56.80
2019-01-23T13:05:55.257Z,56.60
2019-01-23T13:08:24.531Z,57.30
2019-01-23T13:10:53.764Z,58.80
2019-01-23T13:13:23.132Z,58.50
2019-01-23T13:15:52.406Z,59.20
2019-01-23T13:18:21.691Z,59.20
2019-01-23T13:20:51.067Z,59.50
2019-01-23T13:23:20.440Z,59.50
2019-01-23T13:25:49.814Z,60.40
2019-01-23T13:28:19.407Z,60.50
2019-01-23T13:30:49.081Z,60.50
2019-01-23T13:33:18.402Z,60.20
2019-01-23T13:35:47.649Z,60.50
2019-01-23T13:38:17.887Z,60.60
2019-01-23T13:40:48.518Z,61.20
2019-01-23T13:43:17.826Z,61.30
2019-01-23T13:45:47.090Z,61.40
2019-01-23T13:48:16.325Z,61.30
2019-01-23T13:50:45.619Z,62.00
2019-01-23T13:53:14.949Z,61.00
2019-01-23T13:55:49.490Z,61.40
2019-01-23T13:58:20.587Z,61.40
2019-01-23T14:00:49.876Z,61.00
2019-01-23T14:03:19.126Z,61.70
2019-01-23T14:05:48.397Z,61.30
2019-01-23T14:08:17.827Z,60.90
2019-01-23T14:10:47.834Z,60.90
2019-01-23T14:13:17.174Z,61.30
2019-01-23T14:15:47.171Z,61.80
2019-01-23T14:18:18.111Z,61.70
2019-01-23T14:20:47.485Z,61.90
2019-01-23T14:23:16.759Z,62.20
2019-01-23T14:25:46.106Z,62.20
2019-01-23T14:28:15.453Z,62.20
2019-01-23T14:30:45.239Z,62.60
2019-01-23T14:33:14.515Z,62.50
2019-01-23T14:35:44.326Z,63.60
2019-01-23T14:38:13.674Z,63.50
2019-01-23T14:40:42.942Z,63.50
2019-01-23T14:43:12.283Z,63.10
2019-01-23T14:45:41.646Z,63.10
2019-01-23T14:48:10.915Z,63.60
2019-01-23T14:50:40.266Z,63.60
2019-01-23T14:53:09.535Z,63.70
2019-01-23T14:55:38.890Z,63.80
2019-01-23T14:58:08.218Z,64.00
2019-01-23T15:00:37.597Z,64.00
2019-01-23T15:03:06.905Z,64.90
2019-01-23T15:05:36.246Z,64.90
2019-01-23T15:08:05.606Z,64.70
2019-01-23T15:10:34.879Z,64.80
2019-01-23T15:13:05.013Z,64.80
2019-01-23T15:15:34.300Z,65.40
2019-01-23T15:18:03.731Z,66.20
2019-01-23T15:20:36.953Z,66.20
2019-01-23T15:23:06.265Z,66.20
2019-01-23T15:25:35.528Z,66.10
2019-01-23T15:28:04.828Z,65.80
2019-01-23T15:30:34.230Z,65.90
2019-01-23T15:33:03.535Z,66.50
2019-01-23T15:35:32.834Z,66.90
2019-01-23T15:38:02.581Z,66.80
2019-01-23T15:40:33.162Z,67.20
2019-01-23T15:43:02.450Z,67.10
2019-01-23T15:45:31.732Z,67.10
2019-01-23T15:48:01.034Z,67.90
2019-01-23T15:50:30.291Z,67.00
2019-01-23T15:53:00.570Z,68.30
2019-01-23T15:55:29.889Z,68.00
2019-01-23T15:57:59.203Z,68.10
2019-01-23T16:00:29.868Z,68.10
2019-01-23T16:02:59.622Z,68.80
2019-01-23T16:05:28.966Z,69.00
2019-01-23T16:07:58.832Z,69.50
2019-01-23T16:10:28.586Z,69.60
2019-01-23T16:12:57.892Z,69.90
2019-01-23T16:15:27.806Z,70.30
2019-01-23T16:17:57.652Z,70.60
2019-01-23T16:20:27.240Z,70.90
2019-01-23T16:22:56.534Z,70.90
2019-01-23T16:25:26.143Z,71.30
2019-01-23T16:27:55.393Z,71.20
2019-01-23T16:30:26.210Z,71.70
2019-01-23T16:32:56.469Z,71.50
2019-01-23T16:35:25.792Z,71.50
2019-01-23T16:37:55.083Z,71.80
2019-01-23T16:40:24.433Z,72.10
2019-01-23T16:42:53.812Z,72.30
2019-01-23T16:45:23.282Z,72.70
2019-01-23T16:47:52.564Z,72.90
2019-01-23T16:50:23.288Z,73.20
2019-01-23T16:52:53.966Z,73.50
2019-01-23T16:55:23.782Z,73.30
2019-01-23T16:57:53.269Z,73.50
2019-01-23T17:00:23.478Z,74.70
2019-01-23T17:02:53.361Z,74.40
2019-01-23T17:05:24.140Z,74.10
2019-01-23T17:07:53.877Z,74.20
2019-01-23T17:10:24.094Z,74.20
2019-01-23T17:12:53.458Z,74.50
2019-01-23T17:15:22.830Z,74.40
2019-01-23T17:17:52.136Z,74.50
2019-01-23T17:20:29.379Z,75.00
2019-01-23T17:22:58.654Z,75.40
2019-01-23T17:25:28.227Z,75.40
2019-01-23T17:27:57.634Z,75.30
2019-01-23T17:30:27.206Z,75.70
2019-01-23T17:32:56.507Z,75.50
2019-01-23T17:35:26.102Z,75.40
2019-01-23T17:38:07.192Z,75.20
2019-01-23T17:40:36.557Z,75.30
2019-01-23T17:43:05.854Z,75.30
2019-01-23T17:45:36.282Z,75.80
2019-01-23T17:48:06.499Z,75.80
2019-01-23T17:50:35.801Z,75.70
2019-01-23T17:53:05.169Z,76.00
2019-01-23T17:55:35.577Z,76.00
2019-01-23T17:58:06.154Z,76.00
2019-01-23T18:00:38.882Z,76.00
2019-01-23T18:03:08.333Z,75.70
2019-01-23T18:05:37.620Z,76.30
2019-01-23T18:08:07.919Z,76.70
2019-01-23T18:10:37.195Z,76.60
2019-01-23T18:13:06.527Z,76.60
2019-01-23T18:15:35.810Z,76.60
2019-01-23T18:18:05.330Z,76.40
2019-01-23T18:20:34.863Z,76.70
2019-01-23T18:23:04.312Z,76.90
2019-01-23T18:25:33.651Z,76.70
2019-01-23T18:28:02.922Z,77.00
2019-01-23T18:30:34.146Z,76.80
2019-01-23T18:33:04.210Z,76.70
2019-01-23T18:35:43.055Z,76.60
2019-01-23T18:38:31.434Z,76.80
2019-01-23T18:41:38.190Z,76.90
2019-01-23T18:44:13.538Z,76.80
2019-01-23T18:47:08.125Z,76.90
2019-01-23T18:50:08.560Z,77.20
2019-01-23T18:52:37.961Z,76.90
2019-01-23T18:55:08.797Z,76.70
2019-01-23T18:57:38.187Z,76.70
2019-01-23T19:00:08.974Z,76.70
2019-01-23T19:02:38.274Z,76.60
2019-01-23T19:05:08.319Z,76.70
2019-01-23T19:07:37.715Z,77.00
2019-01-23T19:10:10.375Z,77.50
2019-01-23T19:12:39.672Z,77.30
2019-01-23T19:15:09.977Z,77.50
2019-01-23T19:17:39.348Z,77.50
2019-01-23T19:20:10.394Z,77.80
2019-01-23T19:22:39.714Z,77.80
2019-01-23T19:25:09.079Z,77.60
2019-01-23T19:27:39.518Z,77.60
2019-01-23T19:30:09.717Z,77.50
2019-01-23T19:32:39.234Z,77.60
2019-01-23T19:35:08.620Z,77.60
2019-01-23T19:37:37.893Z,77.80
2019-01-23T19:40:07.703Z,77.30
2019-01-23T19:42:37.252Z,77.90
2019-01-23T19:45:07.940Z,77.90
2019-01-23T19:47:37.577Z,77.70
2019-01-23T19:50:08.142Z,77.50
2019-01-23T19:52:37.402Z,77.20
2019-01-23T19:55:07.438Z,77.20
2019-01-23T19:57:36.742Z,77.10
2019-01-23T20:00:25.774Z,77.10
2019-01-23T20:02:55.056Z,77.20
2019-01-23T20:05:31.446Z,77.30
2019-01-23T20:08:00.860Z,77.90
2019-01-23T20:10:30.233Z,77.60
2019-01-23T20:12:59.499Z,77.10
2019-01-23T20:15:31.779Z,77.30
2019-01-23T20:18:05.307Z,77.20
2019-01-23T20:20:34.986Z,77.20
2019-01-23T20:23:04.279Z,77.40
2019-01-23T20:25:33.578Z,77.30
2019-01-23T20:28:03.967Z,77.00
2019-01-23T20:30:34.466Z,77.20
2019-01-23T20:33:03.816Z,77.20
2019-01-23T20:35:33.096Z,77.20
2019-01-23T20:38:31.418Z,77.10
2019-01-23T20:41:00.701Z,76.90
2019-01-23T20:43:30.053Z,76.90
2019-01-23T20:45:59.402Z,77.00
2019-01-23T20:48:28.968Z,77.00
2019-01-23T20:50:58.709Z,77.00
2019-01-23T20:53:28.259Z,77.00
2019-01-23T20:55:57.541Z,77.20
2019-01-23T20:58:26.866Z,77.00
2019-01-23T21:00:56.251Z,77.70
2019-01-23T21:03:25.660Z,77.50
2019-01-23T21:05:55.006Z,77.30
2019-01-23T21:08:24.578Z,77.30
2019-01-23T21:10:53.958Z,78.10
2019-01-23T21:13:23.373Z,77.60
2019-01-23T21:15:58.348Z,77.60
2019-01-23T21:18:27.666Z,78.20
2019-01-23T21:20:57.504Z,77.50
2019-01-23T21:23:26.770Z,77.50
2019-01-23T21:25:56.065Z,77.40
2019-01-23T21:28:25.343Z,77.60
2019-01-23T21:30:54.728Z,77.40
2019-01-23T21:33:24.465Z,77.00
2019-01-23T21:35:54.251Z,77.30
2019-01-23T21:38:24.422Z,76.80
2019-01-23T21:40:53.734Z,76.70
2019-01-23T21:43:23.478Z,76.60
2019-01-23T21:45:52.779Z,76.60
2019-01-23T21:48:22.369Z,76.90
2019-01-23T21:50:51.636Z,77.20
2019-01-23T21:53:20.945Z,77.20
2019-01-23T21:55:50.246Z,77.20
2019-01-23T21:58:19.588Z,77.00
2019-01-23T22:00:50.452Z,76.80
2019-01-23T22:03:19.767Z,77.00
2019-01-23T22:05:49.188Z,77.20
2019-01-23T22:08:18.509Z,77.20
2019-01-23T22:10:47.873Z,77.00
2019-01-23T22:13:17.230Z,77.10
2019-01-23T22:15:47.001Z,77.20
2019-01-23T22:18:33.447Z,77.20
2019-01-23T22:21:05.163Z,76.80
2019-01-23T22:23:34.466Z,76.90
2019-01-23T22:26:03.831Z,76.90
2019-01-23T22:28:33.673Z,76.90
2019-01-23T22:34:20.857Z,76.90
2019-01-23T22:36:50.207Z,77.30
2019-01-23T22:39:19.506Z,77.40
2019-01-23T22:41:48.886Z,77.60
2019-01-23T22:44:18.520Z,77.80
2019-01-23T22:46:47.794Z,77.60
2019-01-23T22:49:17.044Z,77.80
2019-01-23T22:51:46.318Z,78.10
2019-01-23T22:54:15.577Z,78.00
2019-01-23T22:56:44.889Z,78.20
2019-01-23T22:59:14.145Z,78.10
2019-01-23T23:01:43.423Z,78.10
2019-01-23T23:04:12.769Z,78.00
2019-01-23T23:06:42.820Z,78.20
2019-01-23T23:09:12.477Z,78.20
2019-01-23T23:11:41.977Z,78.10
2019-01-23T23:14:11.241Z,78.10
2019-01-23T23:16:40.541Z,78.10
2019-01-23T23:19:09.919Z,78.20
2019-01-23T23:21:39.181Z,78.30
2019-01-23T23:24:08.563Z,78.10
2019-01-23T23:26:37.838Z,78.00
2019-01-23T23:29:07.198Z,77.80
2019-01-23T23:31:37.569Z,78.00
2019-01-23T23:34:10.147Z,78.00
2019-01-23T23:36:37.825Z,78.00
2019-01-23T23:39:08.194Z,78.10
2019-01-23T23:41:37.465Z,77.90
2019-01-23T23:44:06.739Z,78.10
2019-01-23T23:46:36.114Z,78.00
2019-01-23T23:49:05.365Z,78.70
2019-01-23T23:51:34.748Z,78.10
2019-01-23T23:54:04.266Z,78.10
2019-01-23T23:56:33.590Z,78.10
2019-01-23T23:59:02.883Z,78.10
